モスクワ/シェレメーチエヴォ の空港の天気 - METARとTAF

シェレメーチエヴォ国際空港(モスクワ) ( UUEE / SVO ) - ロシア モスクワ
飛行場実況気象(Metar)
観測時間08/22 19:30 MSK (08/22 16:30 UTC)
風向・風速北西 4m/s
視程10km以上
天気現象
なし
気温17℃
湿度72%
気圧1024hPa
METARUUEE 221630Z 31004MPS CAVOK 17/12 Q1024 R24C/CLRD62 R24L/CLRD62 NOSIG
過去の天気等 Google飛行場航空写真 Wunderground天気予報

過去48時間のMETAR

飛行場予報(TAF)
発表時間: 8/22 16:50 MSK (8/22 13:50 UTC)
予報対象時間: 22日18時 MSK ~ 23日18時 MSK
風向・風速北西 8m/s 瞬間風速 13m/s
視程10km以上
全天の8割程度の雲 雲底高度 610m
22日20時 MSK ~ 22日22時 MSK に徐々に
風向・風速北西 3m/s
TAF UUEE 221350Z 2215/2315 32008G13MPS 9999 BKN020 TX22/2312Z TN11/2302Z
BECMG 2217/2219 32003MPS